Apollo Beach, Florida
Current Conditions -  °F | °C
As of 8:58 AM on Thursday 30 Oct 2014 (Local Time) from KMCF Reporting Station
Clear Clear  
Wind Chill: 22°   Ceiling: Unl
Heat Index: 22°   Visibility: 10mi
Dew Point: 22°   Wind: 3mph
Humidity: 100%   Direction: 60°ENE
Pressure: 29.99"   Gusts: NA
Location:  27.77°N, 82.39°W
Report Text: KMCF 301258Z AUTO 06003KT 10SM CLR 22/22 A2999 RMK AO2 SLP159 T02160216
Loading
Personal Weather Stations






























Interactive Weather Map
Tropical Storm Tracking
New forecast layout! Learn more

10-Day Weather Forecast

Advertisements
Track Severe Weather on mobile